Terminal Aerodrome Forecast
Issued by NWS

Current Version | Previous Version | Text Only | Print | Product List | Glossary On
Versions: 1 2 3 4 5 6 7 8 9 10 11 12
804
FTUS42 TJSJ 141747
TAFJPS
TAF
TJPS 141747Z 1418/1518 15010KT P6SM VCSH SCT030 SCT060
     FM142330 09007KT P6SM FEW030 FEW060
     FM151300 14010KT P6SM FEW030
      AMD NOT SKED TIL 150300=

USA.gov is the U.S. government's official web portal to all federal, state and local government web resources and services.